DPA weather

Dupage Airport
Chicago/West Chicago, Illinois, United States

Public forecast

Using degrees Fahrenheit for public forecast. Weather courtesy of forecast.io.

METAR (pilot weather report)

Retrieved 2019/05/21 16:35 UTC (0 seconds ago):

KDPA 211635Z 09009KT 7SM OVC014 10/07 A3013 RMK AO2 RAE02 P0000 T01000067

TAF (pilot weather forecast)

Retrieved 2019/05/21 12:22 UTC (4 hours ago):

TAF KDPA 211120Z 2112/2212 09011G17KT 6SM -RA SCT040 OVC080 FM211600 09014G21KT 6SM -RA BR BKN020 OVC035 FM211900 09017G27KT P6SM VCSH OVC035 FM212200 10020G30KT P6SM BKN040 FM220400 12020G30KT 6SM -SHRA BKN040 PROB30 2205/2207 3SM TSRA SCT020 OVC040CB FM220800 13014G23KT P6SM SCT020 BKN040